createdAt,value
2023-11-01T00:11:56.663Z,96
2023-11-01T00:26:56.638Z,96
2023-11-01T00:41:56.673Z,96
2023-11-01T00:56:56.612Z,96
2023-11-01T01:11:56.620Z,96
2023-11-01T01:26:56.584Z,96
2023-11-01T01:41:56.570Z,96
2023-11-01T01:56:56.579Z,96
2023-11-01T02:11:56.634Z,96
2023-11-01T02:26:56.577Z,96
2023-11-01T02:41:56.576Z,96
2023-11-01T02:56:56.510Z,96
2023-11-01T03:11:56.508Z,96
2023-11-01T03:26:56.477Z,96
2023-11-01T03:41:56.488Z,96
2023-11-01T03:56:56.432Z,96
2023-11-01T04:11:56.477Z,97
2023-11-01T04:26:56.417Z,97
2023-11-01T04:41:56.466Z,97
2023-11-01T04:56:56.433Z,97
2023-11-01T05:11:56.460Z,97
2023-11-01T05:26:56.363Z,97
2023-11-01T05:41:56.393Z,97
2023-11-01T05:56:56.350Z,97
2023-11-01T06:11:56.398Z,97
2023-11-01T06:26:56.359Z,97
2023-11-01T06:41:56.377Z,97
2023-11-01T06:56:56.309Z,97
2023-11-01T07:11:56.366Z,97
2023-11-01T07:26:56.346Z,97
2023-11-01T07:41:56.363Z,97
2023-11-01T07:56:56.297Z,97
2023-11-01T08:11:56.285Z,97
2023-11-01T08:26:56.314Z,97
2023-11-01T08:41:56.321Z,97
2023-11-01T08:56:56.355Z,97
2023-11-01T09:11:56.248Z,97
2023-11-01T09:26:56.232Z,97
2023-11-01T09:41:56.265Z,98
2023-11-01T09:56:56.209Z,98
2023-11-01T10:11:56.194Z,98
2023-11-01T10:26:56.131Z,98
2023-11-01T10:41:56.232Z,98
2023-11-01T10:56:56.119Z,98
2023-11-01T11:11:56.135Z,98
2023-11-01T11:26:56.139Z,98
2023-11-01T11:41:56.077Z,98
2023-11-01T11:56:56.077Z,98
2023-11-01T12:11:56.045Z,98
2023-11-01T12:26:56.017Z,98
2023-11-01T12:41:56.010Z,98
2023-11-01T12:56:55.999Z,98
2023-11-01T13:11:56.017Z,95
2023-11-01T13:26:55.930Z,93
2023-11-01T13:41:55.933Z,89
2023-11-01T13:56:55.954Z,88
2023-11-01T14:11:56.007Z,87
2023-11-01T14:26:55.857Z,86
2023-11-01T14:41:55.833Z,85
2023-11-01T14:56:55.969Z,86
2023-11-01T15:11:55.762Z,86
2023-11-01T15:26:57.247Z,87
2023-11-01T15:41:55.742Z,87
2023-11-01T15:56:55.710Z,88
2023-11-01T16:11:55.710Z,89
2023-11-01T16:26:55.661Z,90
2023-11-01T16:41:55.694Z,91
2023-11-01T16:56:55.671Z,91
2023-11-01T17:11:55.582Z,91
2023-11-01T17:26:55.651Z,91
2023-11-01T17:41:55.695Z,92
2023-11-01T17:56:55.580Z,92
2023-11-01T18:11:55.608Z,92
2023-11-01T18:26:55.590Z,92
2023-11-01T18:41:55.617Z,92
2023-11-01T18:56:55.539Z,92
2023-11-01T19:11:55.546Z,92
2023-11-01T19:26:55.480Z,92
2023-11-01T19:41:55.461Z,92
2023-11-01T19:56:55.422Z,92
2023-11-01T20:11:55.428Z,93
2023-11-01T20:26:55.363Z,93
2023-11-01T20:41:55.402Z,92
2023-11-01T20:56:55.356Z,92
2023-11-01T21:11:55.365Z,93
2023-11-01T21:26:55.321Z,92
2023-11-01T21:41:55.335Z,92
2023-11-01T21:56:55.311Z,91
2023-11-01T22:11:55.327Z,92
2023-11-01T22:26:55.237Z,92
2023-11-01T22:41:55.283Z,92
2023-11-01T22:56:55.208Z,92
2023-11-01T23:11:55.255Z,91
2023-11-01T23:26:55.548Z,91
2023-11-01T23:41:55.173Z,91
2023-11-01T23:56:55.159Z,91
